Time;durP1;ratioP1;P1;durP2;ratioP2;P2;SDS_P1;SDS_P2;PMS_P1;PMS_P2;Temp;Humidity;BMP_temperature;BMP_pressure;BME280_temperature;BME280_humidity;BME280_pressure;Samples;Min_cycle;Max_cycle;Signal;HPM_P1;HPM_P2
2021/11/28 08:39:05;;;;;;;22.25;15.07;;;;;;;;;;5052945;28;20440;-74
2021/11/28 08:41:30;;;;;;;23.00;15.20;;;;;;;;;;5035937;28;20033;-74
2021/11/28 08:43:56;;;;;;;22.23;14.05;;;;;;;;;;5054726;28;20449;-74
2021/11/28 08:46:24;;;;;;;17.45;13.07;;;;;;;;;;5054523;28;20086;-74
2021/11/28 08:48:52;;;;;;;25.25;14.75;;;;;;;;;;5074735;28;20032;-74
2021/11/28 08:51:18;;;;;;;24.30;15.55;;;;;;;;;;5074860;28;20104;-73
2021/11/28 08:53:43;;;;;;;24.80;16.55;;;;;;;;;;5074909;28;20075;-73
2021/11/28 08:56:09;;;;;;;24.50;17.02;;;;;;;;;;5056562;28;20060;-75
2021/11/28 08:58:34;;;;;;;34.50;26.23;;;;;;;;;;5074467;28;20066;-74
2021/11/28 09:01:00;;;;;;;46.15;33.13;;;;;;;;;;5056507;28;20043;-74
2021/11/28 09:03:25;;;;;;;65.53;48.90;;;;;;;;;;5074300;28;20024;-74
2021/11/28 09:05:51;;;;;;;33.80;22.25;;;;;;;;;;5074364;28;20028;-74
2021/11/28 09:08:22;;;;;;;24.00;15.93;;;;;;;;;;5057789;28;20021;-75
2021/11/28 09:10:51;;;;;;;23.52;16.48;;;;;;;;;;5032643;28;20033;-75
2021/11/28 09:13:16;;;;;;;36.80;24.17;;;;;;;;;;5034211;28;20539;-74
2021/11/28 09:15:43;;;;;;;38.15;25.38;;;;;;;;;;5052206;28;20033;-75
2021/11/28 09:18:16;;;;;;;43.95;30.30;;;;;;;;;;5053113;28;20040;-69
2021/11/28 09:20:45;;;;;;;32.65;20.60;;;;;;;;;;5054396;28;20040;-76
2021/11/28 09:25:36;;;;;;;90.93;42.35;;;;;;;;;;5053684;28;20040;-75
2021/11/28 09:28:02;;;;;;;31.05;20.05;;;;;;;;;;5054212;28;20523;-76
2021/11/28 09:30:28;;;;;;;27.15;20.15;;;;;;;;;;5054216;28;20050;-75
2021/11/28 09:32:55;;;;;;;29.73;19.42;;;;;;;;;;5054282;28;20021;-75
2021/11/28 09:35:24;;;;;;;33.67;21.20;;;;;;;;;;5052683;28;20052;-76
2021/11/28 09:37:53;;;;;;;30.58;20.02;;;;;;;;;;5053922;28;20476;-75
2021/11/28 09:40:18;;;;;;;35.58;22.38;;;;;;;;;;5054680;28;20039;-75
2021/11/28 09:42:51;;;;;;;35.67;21.92;;;;;;;;;;5054228;28;20040;-75
2021/11/28 09:45:17;;;;;;;39.72;24.45;;;;;;;;;;5053760;28;20095;-75
2021/11/28 09:47:44;;;;;;;35.47;22.30;;;;;;;;;;5053675;28;20029;-76
2021/11/28 09:50:10;;;;;;;34.00;22.20;;;;;;;;;;5053888;28;20025;-69
2021/11/28 09:52:36;;;;;;;38.97;27.00;;;;;;;;;;5052887;28;20100;-69
2021/11/28 09:55:04;;;;;;;37.20;24.95;;;;;;;;;;5053334;28;20041;-69
2021/11/28 09:57:29;;;;;;;35.42;22.85;;;;;;;;;;5053543;28;20025;-69
2021/11/28 09:59:55;;;;;;;35.85;22.52;;;;;;;;;;5053061;28;20123;-69
2021/11/28 10:02:25;;;;;;;61.92;40.95;;;;;;;;;;5053369;28;20051;-69
2021/11/28 10:04:51;;;;;;;44.90;27.42;;;;;;;;;;5053327;28;20037;-69
2021/11/28 10:07:17;;;;;;;50.00;31.92;;;;;;;;;;5059049;28;20020;-68
2021/11/28 10:09:43;;;;;;;50.90;30.30;;;;;;;;;;5056578;28;20037;-69
2021/11/28 10:12:16;;;;;;;49.00;32.60;;;;;;;;;;5072216;28;20122;-69
2021/11/28 10:14:46;;;;;;;41.50;24.55;;;;;;;;;;5072604;28;20048;-69
2021/11/28 10:17:13;;;;;;;50.07;34.33;;;;;;;;;;5073236;28;20514;-69
2021/11/28 10:19:40;;;;;;;42.95;25.55;;;;;;;;;;5069955;28;20365;-69
2021/11/28 10:22:06;;;;;;;40.42;25.05;;;;;;;;;;5034771;28;20068;-69
2021/11/28 10:24:31;;;;;;;74.32;55.20;;;;;;;;;;5053130;28;20056;-69
2021/11/28 10:26:57;;;;;;;52.10;31.92;;;;;;;;;;5053087;28;20043;-69
2021/11/28 10:29:23;;;;;;;44.58;26.98;;;;;;;;;;5052993;28;20071;-69
2021/11/28 10:31:51;;;;;;;46.97;29.48;;;;;;;;;;5052945;28;20048;-69
2021/11/28 10:34:19;;;;;;;48.53;29.67;;;;;;;;;;5052401;28;20036;-69
2021/11/28 10:36:46;;;;;;;47.60;30.05;;;;;;;;;;5052827;28;20124;-68
2021/11/28 10:39:17;;;;;;;49.70;31.30;;;;;;;;;;5052836;28;20035;-69
2021/11/28 10:41:49;;;;;;;50.03;31.75;;;;;;;;;;5052649;28;20037;-68
2021/11/28 10:44:15;;;;;;;48.88;31.45;;;;;;;;;;5052973;28;20452;-66
2021/11/28 10:46:41;;;;;;;40.85;25.20;;;;;;;;;;5053095;28;20124;-66
2021/11/28 10:49:11;;;;;;;38.65;23.80;;;;;;;;;;5035053;28;20029;-67
2021/11/28 10:51:47;;;;;;;38.25;26.83;;;;;;;;;;5035533;28;20056;-67
2021/11/28 10:54:27;;;;;;;42.80;25.48;;;;;;;;;;5035116;28;20036;-66
2021/11/28 10:57:02;;;;;;;45.58;28.85;;;;;;;;;;5034604;28;20532;-67
2021/11/28 10:59:28;;;;;;;42.00;27.60;;;;;;;;;;5176185;23;20135;-72
2021/11/28 11:01:54;;;;;;;47.20;28.52;;;;;;;;;;5072796;28;20052;-71
2021/11/28 11:04:20;;;;;;;39.65;26.85;;;;;;;;;;5072682;28;20479;-72
2021/11/28 11:07:04;;;;;;;41.53;27.83;;;;;;;;;;5072631;28;20051;-72
2021/11/28 11:09:38;;;;;;;44.70;27.27;;;;;;;;;;5072615;28;20086;-72
2021/11/28 11:12:20;;;;;;;41.47;26.85;;;;;;;;;;5072825;28;20067;-72
2021/11/28 11:14:46;;;;;;;35.10;23.80;;;;;;;;;;5072656;28;20095;-73
2021/11/28 11:17:12;;;;;;;50.78;31.15;;;;;;;;;;5072601;28;20028;-72
2021/11/28 11:19:44;;;;;;;53.53;34.25;;;;;;;;;;5072636;28;20050;-72
2021/11/28 11:22:25;;;;;;;53.38;30.77;;;;;;;;;;5072652;28;20048;-72
2021/11/28 11:24:54;;;;;;;;;;;;;;;;;;5072707;28;20032;-72
2021/11/28 11:27:28;;;;;;;59.00;34.08;;;;;;;;;;5072684;28;20006;-72
2021/11/28 11:29:56;;;;;;;48.03;27.83;;;;;;;;;;5054864;28;20064;-72
2021/11/28 11:32:23;;;;;;;45.05;27.17;;;;;;;;;;5073218;28;20020;-73
2021/11/28 11:34:53;;;;;;;59.67;35.28;;;;;;;;;;5075941;28;20115;-72
2021/11/28 11:37:19;;;;;;;71.43;37.65;;;;;;;;;;5075886;28;20032;-72
2021/11/28 11:39:45;;;;;;;76.97;48.50;;;;;;;;;;5075739;28;20111;-72
2021/11/28 11:42:16;;;;;;;74.28;46.25;;;;;;;;;;5056694;28;20036;-72
2021/11/28 11:44:44;;;;;;;50.17;31.02;;;;;;;;;;5057870;28;20043;-72
2021/11/28 11:47:09;;;;;;;66.00;40.63;;;;;;;;;;5057652;28;20032;-72
2021/11/28 11:49:38;;;;;;;57.42;35.92;;;;;;;;;;5057700;28;20136;-72
2021/11/28 11:52:04;;;;;;;94.63;59.05;;;;;;;;;;5076510;28;20028;-72
2021/11/28 11:54:39;;;;;;;59.75;39.05;;;;;;;;;;5075846;28;20033;-72
2021/11/28 11:57:30;;;;;;;62.30;40.53;;;;;;;;;;5075877;28;20045;-72
2021/11/28 12:00:16;;;;;;;73.70;44.42;;;;;;;;;;5064817;28;20077;-72
2021/11/28 12:02:43;;;;;;;59.20;36.97;;;;;;;;;;5075607;28;20036;-72
2021/11/28 12:05:28;;;;;;;60.10;37.95;;;;;;;;;;5057128;28;20028;-72
2021/11/28 12:07:56;;;;;;;54.78;35.72;;;;;;;;;;5057545;28;20037;-72
2021/11/28 12:10:32;;;;;;;59.22;38.63;;;;;;;;;;5075526;28;20017;-72
2021/11/28 12:12:59;;;;;;;52.35;31.80;;;;;;;;;;5070539;28;20036;-72
2021/11/28 12:15:30;;;;;;;51.65;32.30;;;;;;;;;;5046009;28;20032;-72
2021/11/28 12:17:58;;;;;;;48.30;31.88;;;;;;;;;;5044575;28;20408;-72
2021/11/28 12:20:47;;;;;;;50.17;31.55;;;;;;;;;;5059907;28;20047;-73
2021/11/28 12:23:36;;;;;;;45.10;29.05;;;;;;;;;;5074051;28;20037;-72
2021/11/28 12:26:26;;;;;;;48.83;30.48;;;;;;;;;;5075280;28;20127;-72
2021/11/28 12:29:13;;;;;;;49.67;30.60;;;;;;;;;;5075274;28;20500;-72
2021/11/28 12:31:53;;;;;;;49.50;31.63;;;;;;;;;;5075404;28;20086;-72
2021/11/28 12:34:39;;;;;;;45.95;30.63;;;;;;;;;;5057243;28;20029;-72
2021/11/28 12:37:16;;;;;;;45.92;30.08;;;;;;;;;;5047903;28;20040;-72
2021/11/28 12:39:43;;;;;;;44.22;29.05;;;;;;;;;;5053944;28;20029;-72
2021/11/28 12:42:14;;;;;;;43.67;29.55;;;;;;;;;;5075052;28;20093;-72
2021/11/28 12:44:48;;;;;;;42.03;27.60;;;;;;;;;;5069392;28;20033;-72
2021/11/28 12:47:30;;;;;;;42.10;27.65;;;;;;;;;;5062394;28;20029;-72
2021/11/28 12:50:14;;;;;;;39.75;27.58;;;;;;;;;;5037168;28;20033;-72
2021/11/28 12:52:46;;;;;;;40.70;27.75;;;;;;;;;;5037130;28;20033;-72
2021/11/28 12:55:22;;;;;;;36.20;25.25;;;;;;;;;;5019921;28;20049;-72
2021/11/28 12:58:00;;;;;;;49.10;33.28;;;;;;;;;;5036582;28;20040;-72
2021/11/28 13:00:30;;;;;;;40.58;28.63;;;;;;;;;;5000591;28;20576;-71
2021/11/28 13:03:02;;;;;;;48.90;30.73;;;;;;;;;;4999923;28;20137;-71
2021/11/28 13:05:30;;;;;;;41.85;26.88;;;;;;;;;;5000287;28;20033;-71
2021/11/28 13:08:05;;;;;;;34.90;26.10;;;;;;;;;;5000014;28;20505;-72
2021/11/28 13:10:43;;;;;;;40.05;27.45;;;;;;;;;;5000408;28;20132;-72
2021/11/28 13:13:10;;;;;;;32.95;24.35;;;;;;;;;;5034310;28;20026;-72
2021/11/28 13:15:35;;;;;;;35.72;25.27;;;;;;;;;;5016858;28;20045;-72
2021/11/28 13:18:03;;;;;;;47.30;32.00;;;;;;;;;;5034256;28;20037;-72
2021/11/28 13:20:42;;;;;;;42.17;29.30;;;;;;;;;;5016743;28;20417;-72
2021/11/28 13:23:38;;;;;;;65.65;35.28;;;;;;;;;;5033988;28;20413;-72
2021/11/28 13:26:26;;;;;;;57.08;31.27;;;;;;;;;;5011898;28;20497;-72
2021/11/28 13:28:58;;;;;;;47.20;28.85;;;;;;;;;;5016444;28;20140;-72
2021/11/28 13:31:24;;;;;;;37.33;25.75;;;;;;;;;;5034195;28;20504;-72
2021/11/28 13:33:57;;;;;;;41.92;29.92;;;;;;;;;;5016258;28;20025;-72
2021/11/28 13:36:43;;;;;;;42.25;32.15;;;;;;;;;;4999791;28;20045;-72
2021/11/28 13:39:10;;;;;;;45.47;37.13;;;;;;;;;;5033552;28;20409;-73
2021/11/28 13:41:36;;;;;;;45.90;37.08;;;;;;;;;;4999703;28;20601;-72
2021/11/28 13:44:10;;;;;;;38.92;29.70;;;;;;;;;;5033482;28;20122;-72
2021/11/28 13:46:43;;;;;;;39.40;29.08;;;;;;;;;;5033645;28;20037;-72
2021/11/28 13:49:17;;;;;;;29.85;22.52;;;;;;;;;;4999240;28;20072;-72
2021/11/28 13:51:48;;;;;;;32.13;24.48;;;;;;;;;;5015776;28;20493;-72
2021/11/28 13:54:29;;;;;;;34.00;26.60;;;;;;;;;;5015930;28;20048;-72
2021/11/28 13:57:02;;;;;;;55.47;43.60;;;;;;;;;;5015488;28;20124;-72
2021/11/28 13:59:31;;;;;;;48.95;37.85;;;;;;;;;;5028587;28;20102;-72
2021/11/28 14:02:15;;;;;;;46.45;38.25;;;;;;;;;;5035209;28;20481;-72
2021/11/28 14:04:42;;;;;;;50.90;39.67;;;;;;;;;;5035241;28;20124;-72
2021/11/28 14:07:11;;;;;;;44.55;32.03;;;;;;;;;;5035453;28;20106;-72
2021/11/28 14:09:45;;;;;;;65.75;54.33;;;;;;;;;;5053172;28;20508;-72
2021/11/28 14:12:12;;;;;;;65.28;48.75;;;;;;;;;;5035526;28;20409;-72
2021/11/28 14:14:45;;;;;;;37.08;26.42;;;;;;;;;;5035275;28;20029;-72
2021/11/28 14:17:11;;;;;;;36.50;27.08;;;;;;;;;;5035278;28;20401;-72
2021/11/28 14:19:38;;;;;;;36.13;25.63;;;;;;;;;;5035398;28;20039;-72
2021/11/28 14:22:21;;;;;;;38.00;25.92;;;;;;;;;;5052851;28;20112;-72
2021/11/28 14:24:47;;;;;;;39.33;28.42;;;;;;;;;;5052915;28;20037;-72
2021/11/28 14:27:14;;;;;;;44.45;28.33;;;;;;;;;;5052892;28;20103;-72
2021/11/28 14:29:40;;;;;;;64.53;42.58;;;;;;;;;;5053041;28;20029;-72
2021/11/28 14:32:05;;;;;;;41.95;29.23;;;;;;;;;;5035119;28;20492;-72
2021/11/28 14:34:31;;;;;;;36.17;26.30;;;;;;;;;;5052956;28;20083;-72
2021/11/28 14:36:57;;;;;;;40.17;26.92;;;;;;;;;;5052909;28;20063;-72
2021/11/28 14:39:35;;;;;;;39.35;26.05;;;;;;;;;;5052921;28;20516;-72
2021/11/28 14:42:10;;;;;;;34.70;21.05;;;;;;;;;;5035224;28;20080;-72
2021/11/28 14:44:41;;;;;;;29.10;19.02;;;;;;;;;;5052730;28;20405;-72
2021/11/28 14:47:06;;;;;;;30.05;19.75;;;;;;;;;;5035169;28;20037;-72
2021/11/28 14:49:40;;;;;;;36.70;21.13;;;;;;;;;;5053276;28;20029;-72
2021/11/28 14:52:09;;;;;;;29.60;19.40;;;;;;;;;;5052823;28;20029;-72
2021/11/28 14:54:36;;;;;;;41.80;26.33;;;;;;;;;;5052831;28;20032;-72
2021/11/28 14:57:08;;;;;;;40.05;22.35;;;;;;;;;;5052684;28;20044;-72
2021/11/28 14:59:39;;;;;;;33.67;22.13;;;;;;;;;;5052454;28;20068;-72
2021/11/28 15:02:12;;;;;;;49.50;32.47;;;;;;;;;;5052849;28;20102;-72
2021/11/28 15:04:38;;;;;;;41.38;27.15;;;;;;;;;;5052479;28;20037;-72
2021/11/28 15:07:06;;;;;;;37.88;23.25;;;;;;;;;;5034929;28;20179;-72
2021/11/28 15:09:32;;;;;;;92.78;52.03;;;;;;;;;;5055723;28;20033;-72
2021/11/28 15:11:58;;;;;;;116.45;61.10;;;;;;;;;;5038600;28;20155;-72
2021/11/28 15:14:24;;;;;;;85.97;45.72;;;;;;;;;;5038606;28;20481;-72
2021/11/28 15:16:55;;;;;;;29.83;19.90;;;;;;;;;;5056450;28;20036;-72
2021/11/28 15:19:20;;;;;;;27.40;18.17;;;;;;;;;;5056570;28;20041;-72
2021/11/28 15:21:46;;;;;;;27.48;17.52;;;;;;;;;;5056403;28;20389;-72
2021/11/28 15:24:12;;;;;;;68.40;38.88;;;;;;;;;;5055997;28;20120;-72
2021/11/28 15:26:38;;;;;;;54.80;33.28;;;;;;;;;;5055993;28;20065;-72
2021/11/28 15:29:04;;;;;;;54.42;31.30;;;;;;;;;;5038145;28;20489;-72
2021/11/28 15:31:31;;;;;;;60.38;32.05;;;;;;;;;;5055938;28;20468;-72
2021/11/28 15:33:56;;;;;;;89.22;39.13;;;;;;;;;;5056051;28;20061;-72
2021/11/28 15:36:22;;;;;;;72.80;35.17;;;;;;;;;;5055975;28;20440;-71
2021/11/28 15:38:47;;;;;;;60.75;31.33;;;;;;;;;;5055891;28;20037;-72
2021/11/28 15:41:13;;;;;;;75.97;39.30;;;;;;;;;;5055863;28;20492;-72
2021/11/28 15:43:38;;;;;;;76.97;42.97;;;;;;;;;;5055417;28;20060;-71
2021/11/28 15:46:04;;;;;;;69.13;40.10;;;;;;;;;;5021356;28;20029;-71
2021/11/28 15:48:30;;;;;;;52.05;32.70;;;;;;;;;;5055784;28;20040;-72
2021/11/28 15:50:56;;;;;;;40.08;27.65;;;;;;;;;;5055858;28;20528;-72
2021/11/28 15:53:22;;;;;;;37.13;24.38;;;;;;;;;;5055732;28;20040;-68
2021/11/28 15:55:48;;;;;;;36.28;23.58;;;;;;;;;;5055686;28;20032;-71
2021/11/28 15:58:16;;;;;;;36.60;23.73;;;;;;;;;;5037701;28;20060;-71
2021/11/28 16:00:42;;;;;;;34.42;23.80;;;;;;;;;;5055631;28;20396;-70
2021/11/28 16:03:08;;;;;;;34.95;24.02;;;;;;;;;;5037744;28;20116;-70
2021/11/28 16:05:34;;;;;;;39.65;27.40;;;;;;;;;;5037159;28;20473;-70
2021/11/28 16:08:00;;;;;;;72.68;43.83;;;;;;;;;;5055270;28;20485;-70
2021/11/28 16:10:26;;;;;;;80.22;49.97;;;;;;;;;;5037553;28;20025;-70
2021/11/28 16:12:51;;;;;;;178.07;97.93;;;;;;;;;;5037649;28;20044;-70
2021/11/28 16:15:17;;;;;;;174.90;95.82;;;;;;;;;;5055288;28;20100;-70
2021/11/28 16:17:43;;;;;;;160.02;88.15;;;;;;;;;;5055172;28;20562;-71
2021/11/28 16:20:10;;;;;;;156.25;82.00;;;;;;;;;;5037221;28;20035;-70
2021/11/28 16:22:35;;;;;;;117.78;64.78;;;;;;;;;;5037485;28;20045;-71
2021/11/28 16:25:01;;;;;;;90.75;71.03;;;;;;;;;;5055087;28;20098;-71
2021/11/28 16:27:27;;;;;;;29.73;22.35;;;;;;;;;;5054898;28;20060;-71
2021/11/28 16:29:52;;;;;;;30.98;22.45;;;;;;;;;;5055229;28;20028;-71
2021/11/28 16:32:20;;;;;;;33.28;25.23;;;;;;;;;;5054967;28;20064;-71
2021/11/28 16:34:47;;;;;;;50.15;34.95;;;;;;;;;;5054229;28;20063;-71
2021/11/28 16:37:15;;;;;;;61.95;42.03;;;;;;;;;;5054941;28;20044;-71
2021/11/28 16:39:41;;;;;;;49.38;31.48;;;;;;;;;;5020541;28;20028;-71
2021/11/28 16:42:07;;;;;;;43.53;27.00;;;;;;;;;;5054520;28;20485;-71
2021/11/28 16:44:32;;;;;;;77.55;40.38;;;;;;;;;;5054773;28;20040;-71
2021/11/28 16:46:58;;;;;;;153.20;79.22;;;;;;;;;;5036292;28;20040;-71
2021/11/28 16:49:24;;;;;;;46.90;29.65;;;;;;;;;;5054765;28;20048;-70
2021/11/28 16:51:51;;;;;;;30.42;22.75;;;;;;;;;;5054534;28;20456;-71
2021/11/28 16:54:20;;;;;;;83.38;68.53;;;;;;;;;;5036919;28;20025;-71
2021/11/28 16:56:47;;;;;;;62.90;51.83;;;;;;;;;;5054329;28;20132;-71
2021/11/28 16:59:28;;;;;;;42.25;33.30;;;;;;;;;;5053926;28;20718;-71
2021/11/28 17:01:55;;;;;;;36.70;25.35;;;;;;;;;;5025890;28;20175;-71
2021/11/28 17:04:23;;;;;;;91.40;49.95;;;;;;;;;;5054370;28;20040;-71
2021/11/28 17:06:55;;;;;;;67.82;38.30;;;;;;;;;;5053945;28;20057;-71
2021/11/28 17:09:20;;;;;;;51.67;34.05;;;;;;;;;;5054369;28;20029;-71
2021/11/28 17:11:46;;;;;;;48.40;32.25;;;;;;;;;;5036422;28;20113;-71
2021/11/28 17:14:11;;;;;;;43.28;29.15;;;;;;;;;;5054252;28;20082;-71
2021/11/28 17:16:37;;;;;;;37.85;27.63;;;;;;;;;;5054041;28;20032;-71
2021/11/28 17:19:03;;;;;;;35.13;25.30;;;;;;;;;;5054063;28;20047;-71
2021/11/28 17:21:29;;;;;;;42.17;29.75;;;;;;;;;;5053998;28;20025;-71
2021/11/28 17:23:56;;;;;;;53.70;32.90;;;;;;;;;;5054050;28;20116;-71
2021/11/28 17:26:23;;;;;;;70.53;45.80;;;;;;;;;;5053608;28;20017;-71
2021/11/28 17:28:50;;;;;;;61.15;41.28;;;;;;;;;;5053788;28;20056;-71
2021/11/28 17:31:15;;;;;;;66.03;46.70;;;;;;;;;;5053356;28;20029;-71
2021/11/28 17:33:41;;;;;;;61.30;44.60;;;;;;;;;;5053806;28;20040;-71
2021/11/28 17:36:06;;;;;;;56.40;38.83;;;;;;;;;;5035944;28;20465;-71
2021/11/28 17:38:31;;;;;;;53.50;34.25;;;;;;;;;;5053745;28;20098;-71
2021/11/28 17:40:57;;;;;;;54.22;32.78;;;;;;;;;;5036045;28;20029;-71
2021/11/28 17:43:23;;;;;;;51.90;33.33;;;;;;;;;;5053788;28;20029;-71
2021/11/28 18:06:05;;;;;;;41.97;28.45;;;;;;;;;;5053554;28;20043;-70
2021/11/28 18:08:32;;;;;;;45.42;29.98;;;;;;;;;;5052973;28;20132;-71
2021/11/28 18:11:03;;;;;;;51.83;33.85;;;;;;;;;;5035619;28;20098;-71
2021/11/28 18:13:28;;;;;;;49.80;33.08;;;;;;;;;;5053238;28;20035;-71
2021/11/28 18:15:54;;;;;;;45.03;30.88;;;;;;;;;;5053189;28;20056;-70
2021/11/28 18:18:19;;;;;;;48.90;31.80;;;;;;;;;;5053150;28;20453;-71
2021/11/28 18:20:46;;;;;;;46.88;31.38;;;;;;;;;;5053065;28;20424;-70
2021/11/28 18:23:11;;;;;;;47.38;31.55;;;;;;;;;;5053461;28;20033;-70
2021/11/28 18:25:39;;;;;;;45.60;29.73;;;;;;;;;;5053157;28;20021;-71
2021/11/28 18:28:05;;;;;;;45.70;29.83;;;;;;;;;;5052612;28;20040;-70
2021/11/28 18:30:31;;;;;;;54.50;35.55;;;;;;;;;;5053060;28;20033;-70
2021/11/28 18:33:00;;;;;;;50.45;31.08;;;;;;;;;;5053148;28;20037;-71
2021/11/28 18:35:26;;;;;;;45.75;28.48;;;;;;;;;;5053028;28;20180;-70
2021/11/28 18:37:52;;;;;;;32.20;22.00;;;;;;;;;;5052825;28;20045;-70
2021/11/28 18:40:17;;;;;;;32.63;20.80;;;;;;;;;;5052797;28;20378;-70
2021/11/28 18:42:44;;;;;;;30.30;20.73;;;;;;;;;;5053062;28;20373;-70
2021/11/28 18:45:10;;;;;;;30.42;20.33;;;;;;;;;;5057017;28;20029;-71
2021/11/28 18:47:36;;;;;;;32.97;22.15;;;;;;;;;;5056498;28;20041;-70
2021/11/28 18:50:02;;;;;;;37.95;24.60;;;;;;;;;;5057057;28;20104;-70
2021/11/28 18:52:28;;;;;;;39.53;27.13;;;;;;;;;;5039056;28;20452;-70
2021/11/28 18:54:53;;;;;;;40.47;27.02;;;;;;;;;;5056982;28;20057;-71
2021/11/28 18:57:19;;;;;;;38.38;24.48;;;;;;;;;;5056826;28;20048;-71
2021/11/28 18:59:47;;;;;;;35.22;23.30;;;;;;;;;;5056477;28;20490;-71
2021/11/28 19:02:13;;;;;;;36.53;22.33;;;;;;;;;;5056318;28;20037;-70
2021/11/28 19:04:39;;;;;;;37.58;21.80;;;;;;;;;;5056767;28;20123;-71
2021/11/28 19:07:04;;;;;;;31.58;20.33;;;;;;;;;;5056593;28;20148;-71
2021/11/28 19:09:30;;;;;;;36.40;21.80;;;;;;;;;;5056762;28;20024;-71
2021/11/28 19:11:56;;;;;;;35.60;21.85;;;;;;;;;;5038903;28;20049;-71
2021/11/28 19:14:21;;;;;;;36.28;22.02;;;;;;;;;;5056397;28;20041;-71
2021/11/28 19:16:47;;;;;;;44.20;25.42;;;;;;;;;;5056593;28;20047;-72
2021/11/28 19:19:12;;;;;;;38.15;23.65;;;;;;;;;;5038639;28;20439;-72
2021/11/28 19:21:38;;;;;;;43.28;24.17;;;;;;;;;;5056626;28;20045;-71
2021/11/28 19:24:04;;;;;;;42.33;25.88;;;;;;;;;;5056497;28;20028;-71
2021/11/28 19:26:29;;;;;;;41.45;25.52;;;;;;;;;;5056261;28;20029;-72
2021/11/28 19:28:57;;;;;;;51.53;31.17;;;;;;;;;;5056311;28;20381;-67
2021/11/28 19:31:26;;;;;;;56.23;32.33;;;;;;;;;;5056986;28;20056;-66
2021/11/28 19:33:52;;;;;;;51.30;30.52;;;;;;;;;;5056328;28;20274;-66
2021/11/28 19:36:18;;;;;;;53.80;31.15;;;;;;;;;;5056093;28;20021;-66
2021/11/28 19:38:45;;;;;;;49.67;29.55;;;;;;;;;;5056423;28;20095;-66
2021/11/28 19:41:11;;;;;;;50.13;27.98;;;;;;;;;;5073003;28;20491;-66
2021/11/28 19:43:37;;;;;;;44.00;26.85;;;;;;;;;;5075874;28;20037;-67
2021/11/28 19:46:03;;;;;;;49.28;28.20;;;;;;;;;;5076022;28;20078;-66
2021/11/28 19:48:29;;;;;;;48.67;26.75;;;;;;;;;;5075785;28;20032;-66
2021/11/28 19:50:55;;;;;;;48.70;28.98;;;;;;;;;;5075932;28;20392;-66
2021/11/28 19:53:23;;;;;;;49.80;29.63;;;;;;;;;;5075731;28;20408;-66
2021/11/28 19:55:48;;;;;;;48.80;26.20;;;;;;;;;;5057631;28;20396;-66
2021/11/28 19:58:14;;;;;;;51.58;26.92;;;;;;;;;;5075357;28;20036;-67
2021/11/28 20:00:40;;;;;;;49.05;25.02;;;;;;;;;;5075786;28;20049;-66
2021/11/28 20:03:06;;;;;;;59.65;33.25;;;;;;;;;;5075649;28;20096;-66
2021/11/28 20:05:32;;;;;;;54.92;28.15;;;;;;;;;;5075676;28;20107;-66
2021/11/28 20:07:58;;;;;;;51.15;26.42;;;;;;;;;;5040873;28;20044;-66
2021/11/28 20:10:23;;;;;;;48.95;24.85;;;;;;;;;;5075160;28;20028;-67
2021/11/28 20:12:50;;;;;;;46.33;26.23;;;;;;;;;;5058013;28;20086;-66
2021/11/28 20:15:16;;;;;;;49.45;26.95;;;;;;;;;;5075591;28;20123;-66
2021/11/28 20:17:42;;;;;;;46.50;26.25;;;;;;;;;;5067549;28;20511;-66
2021/11/28 20:20:08;;;;;;;47.25;25.50;;;;;;;;;;5058355;28;20029;-66
2021/11/28 20:22:34;;;;;;;43.58;24.55;;;;;;;;;;5055043;28;20489;-66
2021/11/28 20:25:00;;;;;;;44.15;25.23;;;;;;;;;;5055314;28;20048;-66
2021/11/28 20:27:26;;;;;;;45.25;25.10;;;;;;;;;;5055056;28;20144;-66
2021/11/28 20:29:51;;;;;;;41.00;23.08;;;;;;;;;;5055396;28;20111;-66
2021/11/28 20:32:17;;;;;;;42.45;23.38;;;;;;;;;;5037318;28;20033;-66
2021/11/28 20:34:44;;;;;;;36.20;20.63;;;;;;;;;;5037332;28;20037;-65
2021/11/28 20:37:11;;;;;;;34.08;20.10;;;;;;;;;;5055326;28;20037;-66
2021/11/28 20:39:36;;;;;;;32.47;19.15;;;;;;;;;;5054943;28;20090;-66
2021/11/28 20:42:02;;;;;;;30.85;16.15;;;;;;;;;;5054976;28;20052;-66
2021/11/28 20:44:28;;;;;;;30.20;18.02;;;;;;;;;;5054887;28;20037;-66
2021/11/28 20:46:54;;;;;;;26.98;16.52;;;;;;;;;;5054680;28;20085;-66
2021/11/28 20:49:19;;;;;;;28.40;17.15;;;;;;;;;;5054948;28;20031;-66
2021/11/28 20:51:45;;;;;;;28.98;17.17;;;;;;;;;;5037148;28;20095;-66
2021/11/28 20:54:14;;;;;;;26.23;15.77;;;;;;;;;;5054705;28;20033;-66
2021/11/28 20:56:40;;;;;;;31.08;16.67;;;;;;;;;;5036965;28;20036;-66
2021/11/28 20:59:07;;;;;;;28.00;16.83;;;;;;;;;;5036316;28;20048;-65
2021/11/28 21:01:33;;;;;;;27.45;16.85;;;;;;;;;;5054638;28;20037;-66
2021/11/28 21:03:59;;;;;;;25.88;16.17;;;;;;;;;;5054499;28;20091;-66
2021/11/28 21:06:24;;;;;;;24.45;16.00;;;;;;;;;;5053148;28;20041;-66
2021/11/28 21:08:50;;;;;;;23.35;14.82;;;;;;;;;;5054541;28;20131;-64
2021/11/28 21:11:15;;;;;;;21.80;13.93;;;;;;;;;;5054291;28;20385;-65
2021/11/28 21:13:44;;;;;;;24.75;14.68;;;;;;;;;;5054232;28;20051;-66
2021/11/28 21:16:11;;;;;;;23.67;15.27;;;;;;;;;;5054436;28;20108;-65
2021/11/28 21:18:38;;;;;;;24.25;14.73;;;;;;;;;;5054145;28;20037;-66
2021/11/28 21:21:07;;;;;;;23.95;15.40;;;;;;;;;;5036264;28;20033;-66
2021/11/28 21:23:34;;;;;;;21.70;14.77;;;;;;;;;;5054099;28;20116;-66
2021/11/28 21:26:04;;;;;;;24.02;14.90;;;;;;;;;;5027829;28;20538;-65
2021/11/28 21:28:29;;;;;;;25.88;14.93;;;;;;;;;;5038396;28;20041;-75
2021/11/28 21:30:55;;;;;;;23.63;14.68;;;;;;;;;;5054053;28;20036;-74
2021/11/28 21:33:21;;;;;;;20.20;12.55;;;;;;;;;;5053975;28;20071;-75
2021/11/28 21:35:47;;;;;;;18.65;13.05;;;;;;;;;;5053874;28;20021;-74
2021/11/28 21:38:14;;;;;;;20.98;13.30;;;;;;;;;;5036048;28;20187;-74
2021/11/28 21:40:40;;;;;;;21.90;13.82;;;;;;;;;;5036074;28;20025;-74
2021/11/28 21:43:06;;;;;;;22.83;13.93;;;;;;;;;;5053751;28;20056;-74
2021/11/28 21:45:32;;;;;;;22.80;13.40;;;;;;;;;;5035285;28;20025;-74
2021/11/28 21:47:58;;;;;;;19.52;12.02;;;;;;;;;;5034812;28;20435;-74
2021/11/28 21:50:24;;;;;;;23.60;14.15;;;;;;;;;;5052749;28;20025;-68
2021/11/28 21:52:50;;;;;;;20.13;13.05;;;;;;;;;;5052602;28;20029;-68
2021/11/28 21:55:16;;;;;;;21.80;13.30;;;;;;;;;;5034832;28;20069;-68
2021/11/28 21:57:42;;;;;;;25.67;13.57;;;;;;;;;;5052499;28;20547;-68
2021/11/28 22:00:09;;;;;;;24.52;14.13;;;;;;;;;;5052356;28;20048;-69
2021/11/28 22:02:38;;;;;;;22.75;14.00;;;;;;;;;;5052333;28;20049;-69
2021/11/28 22:05:03;;;;;;;19.63;12.85;;;;;;;;;;5052508;28;20048;-68
2021/11/28 22:07:32;;;;;;;23.13;13.95;;;;;;;;;;5034617;28;20045;-69
2021/11/28 22:09:59;;;;;;;24.83;13.10;;;;;;;;;;5018257;28;20393;-69
2021/11/28 22:12:25;;;;;;;24.38;14.45;;;;;;;;;;5052277;28;20041;-69
2021/11/28 22:14:50;;;;;;;27.35;14.63;;;;;;;;;;5017930;28;20036;-69
2021/11/28 22:17:16;;;;;;;24.58;14.63;;;;;;;;;;5051877;28;20044;-69
2021/11/28 22:19:41;;;;;;;23.63;13.57;;;;;;;;;;5052225;28;20119;-74
2021/11/28 22:22:07;;;;;;;22.58;13.82;;;;;;;;;;5052303;28;20071;-74
2021/11/28 22:24:33;;;;;;;18.90;13.25;;;;;;;;;;5034464;28;20504;-75
2021/11/28 22:26:59;;;;;;;21.88;13.05;;;;;;;;;;5051911;28;20120;-75
2021/11/28 22:29:24;;;;;;;21.20;13.77;;;;;;;;;;5034381;28;20435;-74
2021/11/28 22:31:50;;;;;;;20.27;13.35;;;;;;;;;;5052109;28;20129;-73
2021/11/28 22:34:16;;;;;;;20.85;13.73;;;;;;;;;;5034314;28;20028;-74
2021/11/28 22:36:42;;;;;;;24.48;13.55;;;;;;;;;;5052146;28;20036;-71
2021/11/28 22:39:07;;;;;;;22.42;14.23;;;;;;;;;;5052210;28;20033;-71
2021/11/28 22:41:33;;;;;;;22.00;12.77;;;;;;;;;;5034338;28;20033;-73
2021/11/28 22:43:58;;;;;;;23.70;15.00;;;;;;;;;;5052192;28;20558;-72
2021/11/28 22:46:25;;;;;;;22.70;13.60;;;;;;;;;;5051982;28;20028;-73
2021/11/28 22:48:50;;;;;;;25.67;14.85;;;;;;;;;;5017581;28;20469;-73
2021/11/28 22:51:17;;;;;;;24.90;14.70;;;;;;;;;;5051928;28;20032;-73
2021/11/28 22:53:44;;;;;;;24.75;14.55;;;;;;;;;;5033581;28;20039;-73
2021/11/28 22:56:10;;;;;;;24.33;13.77;;;;;;;;;;5051539;28;20029;-72
2021/11/28 22:58:37;;;;;;;27.75;15.55;;;;;;;;;;5051586;28;20029;-72
2021/11/28 23:01:05;;;;;;;28.35;15.48;;;;;;;;;;5026794;28;20076;-72
2021/11/28 23:03:31;;;;;;;22.02;14.02;;;;;;;;;;5032048;28;20033;-72
2021/11/28 23:05:56;;;;;;;21.00;13.15;;;;;;;;;;5031799;28;20133;-66
2021/11/28 23:08:31;;;;;;;25.65;15.25;;;;;;;;;;5031894;28;20045;-67
2021/11/28 23:10:57;;;;;;;23.42;14.13;;;;;;;;;;5013881;28;20061;-67
2021/11/28 23:13:22;;;;;;;21.05;13.52;;;;;;;;;;5014101;28;20401;-67
2021/11/28 23:15:48;;;;;;;23.33;14.75;;;;;;;;;;5031656;28;20401;-66
2021/11/28 23:18:14;;;;;;;23.35;14.27;;;;;;;;;;5031713;28;20040;-67
2021/11/28 23:20:41;;;;;;;22.08;14.02;;;;;;;;;;5031612;28;20033;-72
2021/11/28 23:23:07;;;;;;;20.42;13.35;;;;;;;;;;5031816;28;20041;-72